Time;durP1;ratioP1;P1;durP2;ratioP2;P2;SDS_P1;SDS_P2;PMS_P1;PMS_P2;Temp;Humidity;BMP_temperature;BMP_pressure;BME280_temperature;BME280_humidity;BME280_pressure;Samples;Min_cycle;Max_cycle;Signal;HPM_P1;HPM_P2
2022/04/24 00:00:25;;;;;;;2.28;2.08;;;7.30;99.90;;;;;;6150146;28;20239;-66
2022/04/24 00:03:32;;;;;;;2.65;2.15;;;7.40;99.90;;;;;;6149981;28;20254;-66
2022/04/24 00:06:41;;;;;;;1.83;1.73;;;7.40;99.90;;;;;;6172844;28;20246;-66
2022/04/24 00:09:46;;;;;;;2.30;2.08;;;7.40;99.90;;;;;;6173476;28;20314;-66
2022/04/24 00:12:52;;;;;;;2.20;2.13;;;7.50;99.90;;;;;;6173207;28;20238;-68
2022/04/24 00:15:58;;;;;;;3.83;2.72;;;7.50;99.90;;;;;;6173740;28;20227;-66
2022/04/24 00:19:05;;;;;;;2.30;2.20;;;7.50;99.90;;;;;;6173227;28;20230;-67
2022/04/24 00:22:13;;;;;;;2.47;2.30;;;7.50;99.90;;;;;;6172883;28;20233;-66
2022/04/24 00:25:18;;;;;;;2.20;2.10;;;7.50;99.90;;;;;;6173033;28;20226;-66
2022/04/24 00:28:23;;;;;;;2.25;2.25;;;7.50;99.90;;;;;;6172490;28;20249;-67
2022/04/24 00:31:29;;;;;;;2.20;2.20;;;7.50;99.90;;;;;;6172954;28;20582;-68
2022/04/24 00:34:36;;;;;;;2.53;2.42;;;7.50;99.90;;;;;;6172284;28;20232;-66
2022/04/24 00:37:42;;;;;;;2.50;2.30;;;7.50;99.90;;;;;;6172361;28;20522;-66
2022/04/24 00:40:48;;;;;;;2.47;2.40;;;7.50;99.90;;;;;;6172483;28;20691;-66
2022/04/24 00:43:54;;;;;;;2.47;2.38;;;7.50;99.90;;;;;;6172606;28;20235;-66
2022/04/24 00:47:23;;;;;;;2.45;2.35;;;7.50;99.90;;;;;;6171813;28;20572;-66
2022/04/24 00:50:30;;;;;;;2.53;2.42;;;7.50;99.90;;;;;;6172427;28;20230;-65
2022/04/24 00:53:35;;;;;;;2.53;2.47;;;7.50;99.90;;;;;;6172436;28;20269;-66
2022/04/24 00:56:42;;;;;;;2.53;2.42;;;7.60;99.90;;;;;;6172673;28;20238;-66
2022/04/24 00:59:48;;;;;;;2.40;2.30;;;7.60;99.90;;;;;;6171629;28;20246;-66
2022/04/24 01:02:54;;;;;;;2.42;2.30;;;7.60;99.90;;;;;;6172078;28;20367;-66
2022/04/24 01:06:01;;;;;;;2.42;2.33;;;7.60;99.90;;;;;;6172028;28;20240;-67
2022/04/24 01:09:12;;;;;;;2.30;2.30;;;7.60;99.90;;;;;;6170561;28;20250;-67
2022/04/24 01:12:17;;;;;;;2.13;2.13;;;7.60;99.90;;;;;;6171939;28;20226;-65
2022/04/24 01:15:22;;;;;;;2.60;2.60;;;7.60;99.90;;;;;;6172046;28;20561;-66
2022/04/24 01:18:28;;;;;;;2.40;2.30;;;7.60;99.90;;;;;;6171954;28;20238;-66
2022/04/24 01:21:35;;;;;;;2.33;2.33;;;7.60;99.90;;;;;;6172906;28;20248;-66
2022/04/24 01:24:42;;;;;;;2.42;2.33;;;7.60;99.90;;;;;;6171498;28;20227;-65
2022/04/24 01:27:48;;;;;;;2.13;2.03;;;7.60;99.90;;;;;;6171475;28;20246;-66
2022/04/24 01:30:53;;;;;;;2.33;2.30;;;7.60;99.90;;;;;;6172165;28;20238;-67
2022/04/24 01:33:58;;;;;;;2.42;2.33;;;7.50;99.90;;;;;;6171751;28;20617;-67
2022/04/24 01:37:05;;;;;;;2.33;2.22;;;7.50;99.90;;;;;;6171852;28;20230;-66
2022/04/24 01:40:12;;;;;;;2.30;2.10;;;7.40;99.90;;;;;;6172294;28;20299;-66
2022/04/24 01:43:18;;;;;;;3.33;2.38;;;7.40;99.90;;;;;;6171662;28;20256;-66
2022/04/24 01:46:24;;;;;;;1.98;1.98;;;7.30;99.90;;;;;;6172103;28;20244;-66
2022/04/24 01:49:29;;;;;;;2.00;2.00;;;7.30;99.90;;;;;;6171527;28;20248;-66
2022/04/24 01:52:36;;;;;;;1.80;1.80;;;7.20;99.90;;;;;;6171576;28;20693;-65
2022/04/24 01:55:41;;;;;;;1.77;1.77;;;7.20;99.90;;;;;;6172438;28;20599;-67
2022/04/24 01:58:46;;;;;;;2.07;1.97;;;7.20;99.90;;;;;;6171579;28;20238;-67
2022/04/24 02:01:51;;;;;;;2.08;2.08;;;7.10;99.90;;;;;;6172067;28;20289;-66
2022/04/24 02:04:57;;;;;;;1.98;1.98;;;7.00;99.90;;;;;;6171139;28;20245;-67
2022/04/24 02:08:04;;;;;;;2.07;1.97;;;6.90;99.90;;;;;;6171494;28;20314;-67
2022/04/24 02:11:11;;;;;;;1.70;1.70;;;6.80;99.90;;;;;;6171976;28;20694;-65
2022/04/24 02:14:16;;;;;;;1.75;1.75;;;6.80;99.90;;;;;;6171234;28;20229;-66
2022/04/24 02:17:22;;;;;;;2.03;2.03;;;6.80;99.90;;;;;;6171363;28;20238;-67
2022/04/24 02:20:28;;;;;;;2.23;2.20;;;6.80;99.90;;;;;;6172360;28;20245;-66
2022/04/24 02:23:35;;;;;;;2.30;1.88;;;6.70;99.90;;;;;;6171077;28;20646;-67
2022/04/24 02:26:41;;;;;;;1.90;1.90;;;6.70;99.90;;;;;;6171862;28;20242;-66
2022/04/24 02:29:46;;;;;;;3.57;2.23;;;6.60;99.90;;;;;;6172662;28;20234;-66
2022/04/24 02:32:51;;;;;;;2.00;2.00;;;6.70;99.90;;;;;;6175007;28;20238;-65
2022/04/24 02:35:57;;;;;;;1.90;1.80;;;6.60;99.90;;;;;;6175982;28;20734;-66
2022/04/24 02:39:03;;;;;;;2.07;2.07;;;6.50;99.90;;;;;;6175448;28;20235;-66
2022/04/24 02:42:12;;;;;;;1.90;1.80;;;6.50;99.90;;;;;;6175400;28;20226;-67
2022/04/24 02:45:17;;;;;;;2.00;2.00;;;6.40;99.90;;;;;;6176371;28;20241;-66
2022/04/24 02:48:26;;;;;;;1.98;1.95;;;6.40;99.90;;;;;;6149144;28;20288;-66
2022/04/24 02:51:31;;;;;;;1.77;1.77;;;6.40;99.90;;;;;;6175468;28;20235;-66
2022/04/24 02:54:39;;;;;;;1.93;1.90;;;6.30;99.90;;;;;;6174874;28;20230;-66
2022/04/24 02:57:45;;;;;;;1.97;1.97;;;6.30;99.90;;;;;;6175219;28;20238;-67
2022/04/24 03:00:51;;;;;;;1.70;1.70;;;6.20;99.90;;;;;;6175375;28;20234;-66
2022/04/24 03:03:56;;;;;;;1.70;1.70;;;6.30;99.90;;;;;;6173602;28;20689;-65
2022/04/24 03:07:02;;;;;;;1.63;1.63;;;6.20;99.90;;;;;;6174631;28;20246;-66
2022/04/24 03:10:10;;;;;;;1.80;1.80;;;6.10;99.90;;;;;;6158127;28;20246;-67
2022/04/24 03:13:15;;;;;;;2.00;1.90;;;6.10;99.90;;;;;;6174116;28;20227;-67
2022/04/24 03:16:20;;;;;;;1.63;1.63;;;6.10;99.90;;;;;;6175151;28;20238;-66
2022/04/24 03:19:26;;;;;;;1.70;1.70;;;6.00;99.90;;;;;;6173902;28;20237;-66
2022/04/24 03:22:33;;;;;;;1.50;1.50;;;6.00;99.90;;;;;;6173912;28;20330;-65
2022/04/24 03:25:40;;;;;;;1.60;1.60;;;6.00;99.90;;;;;;6175066;28;20237;-65
2022/04/24 03:28:46;;;;;;;2.47;1.70;;;6.00;99.90;;;;;;6173655;28;20593;-65
2022/04/24 03:31:53;;;;;;;1.80;1.70;;;5.90;99.90;;;;;;6174980;28;20243;-66
2022/04/24 03:34:58;;;;;;;1.80;1.50;;;5.90;99.90;;;;;;6174470;28;20237;-66
2022/04/24 03:38:04;;;;;;;1.80;1.70;;;5.90;99.90;;;;;;6174101;28;20310;-66
2022/04/24 03:41:10;;;;;;;1.70;1.70;;;5.90;99.90;;;;;;6173718;28;20230;-67
2022/04/24 03:44:16;;;;;;;1.73;1.73;;;5.90;99.90;;;;;;6173917;28;20241;-65
2022/04/24 03:47:22;;;;;;;1.33;1.33;;;5.90;99.90;;;;;;6173569;28;20241;-66
2022/04/24 03:50:27;;;;;;;1.70;1.60;;;5.90;99.90;;;;;;6173943;28;20268;-68
2022/04/24 03:53:32;;;;;;;1.50;1.50;;;5.90;99.90;;;;;;6173214;28;20249;-66
2022/04/24 03:56:39;;;;;;;1.50;1.50;;;5.80;99.90;;;;;;6174831;28;20281;-66
2022/04/24 03:59:44;;;;;;;1.60;1.60;;;5.80;99.90;;;;;;6173219;28;20242;-66
2022/04/24 04:02:50;;;;;;;1.70;1.70;;;5.70;99.90;;;;;;6173639;28;20620;-65
2022/04/24 04:05:56;;;;;;;1.50;1.50;;;5.70;99.90;;;;;;6171112;28;20245;-66
2022/04/24 04:09:01;;;;;;;1.40;1.40;;;5.60;99.90;;;;;;6180237;28;20245;-66
2022/04/24 04:12:11;;;;;;;1.57;1.57;;;5.60;99.90;;;;;;6157044;28;20226;-66
2022/04/24 04:15:17;;;;;;;2.40;1.50;;;5.60;99.90;;;;;;6174981;28;20236;-66
2022/04/24 04:18:22;;;;;;;2.00;1.60;;;5.60;99.90;;;;;;6174008;28;20248;-66
2022/04/24 04:21:27;;;;;;;1.37;1.37;;;5.60;99.90;;;;;;6174512;28;20248;-66
2022/04/24 04:24:32;;;;;;;1.70;1.60;;;5.60;99.90;;;;;;6175524;28;20226;-67
2022/04/24 04:27:39;;;;;;;1.60;1.50;;;5.70;99.90;;;;;;6174607;28;20248;-66
2022/04/24 04:30:45;;;;;;;1.60;1.60;;;5.70;99.90;;;;;;6173347;28;20292;-65
2022/04/24 04:33:50;;;;;;;1.27;1.27;;;5.70;99.90;;;;;;6173550;28;20253;-65
2022/04/24 04:36:55;;;;;;;1.50;1.50;;;5.70;99.90;;;;;;6173208;28;20233;-67
2022/04/24 04:40:02;;;;;;;1.30;1.30;;;5.70;99.90;;;;;;6174499;28;20242;-66
2022/04/24 04:43:13;;;;;;;1.57;1.30;;;5.70;99.90;;;;;;6173936;28;20238;-66
2022/04/24 04:46:18;;;;;;;1.30;1.30;;;5.70;99.90;;;;;;6175011;28;20234;-67
2022/04/24 04:49:24;;;;;;;1.63;1.53;;;5.70;99.90;;;;;;6189842;28;20245;-66
2022/04/24 04:52:29;;;;;;;1.07;1.07;;;5.70;99.90;;;;;;6184170;28;20241;-68
2022/04/24 04:55:34;;;;;;;1.43;1.33;;;5.70;99.90;;;;;;6179189;28;20267;-66
2022/04/24 04:58:48;;;;;;;1.60;1.60;;;5.70;99.90;;;;;;6185623;28;20242;-65
2022/04/24 05:01:53;;;;;;;1.50;1.50;;;5.80;99.90;;;;;;6174576;28;20573;-65
2022/04/24 05:05:00;;;;;;;1.50;1.50;;;5.80;99.90;;;;;;6179187;28;20242;-66
2022/04/24 05:08:08;;;;;;;1.30;1.30;;;5.80;99.90;;;;;;6182819;28;20260;-66
2022/04/24 05:11:13;;;;;;;1.30;1.30;;;5.80;99.90;;;;;;6173922;28;20234;-66
2022/04/24 05:14:20;;;;;;;1.20;1.20;;;5.80;99.90;;;;;;6171848;28;20226;-65
2022/04/24 05:17:27;;;;;;;1.30;1.30;;;5.80;99.90;;;;;;6171491;28;20254;-66
2022/04/24 05:20:32;;;;;;;1.30;1.30;;;5.80;99.90;;;;;;6172466;28;20602;-66
2022/04/24 05:23:37;;;;;;;1.20;1.20;;;5.80;99.90;;;;;;6171745;28;20259;-65
2022/04/24 05:26:43;;;;;;;1.20;1.20;;;5.80;99.90;;;;;;6172446;28;20245;-65
2022/04/24 05:29:50;;;;;;;1.27;1.27;;;5.80;99.90;;;;;;6154664;28;20589;-66
2022/04/24 05:32:55;;;;;;;1.30;1.20;;;5.90;99.90;;;;;;6171235;28;20701;-66
2022/04/24 05:36:00;;;;;;;1.20;1.20;;;5.90;99.90;;;;;;6171836;28;20561;-68
2022/04/24 05:39:06;;;;;;;1.47;1.37;;;5.90;99.90;;;;;;6171250;28;20234;-67
2022/04/24 05:42:12;;;;;;;1.40;1.40;;;5.90;99.90;;;;;;6171270;28;20233;-66
2022/04/24 05:45:22;;;;;;;1.30;1.30;;;6.00;99.90;;;;;;6171548;28;20233;-66
2022/04/24 05:48:27;;;;;;;1.33;1.33;;;6.10;99.90;;;;;;6171364;28;20239;-66
2022/04/24 05:51:33;;;;;;;1.47;1.47;;;6.20;99.90;;;;;;6172226;28;20245;-67
2022/04/24 05:54:38;;;;;;;1.30;1.30;;;6.30;99.90;;;;;;6171300;28;20230;-66
2022/04/24 05:57:44;;;;;;;1.40;1.40;;;6.30;99.90;;;;;;6171543;28;20248;-67
2022/04/24 06:00:51;;;;;;;1.50;1.40;;;6.40;99.90;;;;;;6172151;28;20328;-65
2022/04/24 06:03:56;;;;;;;1.23;1.23;;;6.50;99.90;;;;;;6171404;28;20257;-66
2022/04/24 06:07:02;;;;;;;1.70;1.30;;;6.50;99.90;;;;;;6176060;28;20234;-67
2022/04/24 06:10:10;;;;;;;1.30;1.30;;;6.50;99.90;;;;;;6176337;28;20234;-66
2022/04/24 06:13:18;;;;;;;1.30;1.30;;;6.40;99.90;;;;;;6175669;28;20717;-66
2022/04/24 06:16:25;;;;;;;1.20;1.20;;;6.50;99.90;;;;;;6176354;28;20236;-66
2022/04/24 06:19:30;;;;;;;1.27;1.27;;;6.50;99.90;;;;;;6176236;28;20230;-66
2022/04/24 06:22:43;;;;;;;1.10;1.10;;;6.50;99.90;;;;;;6176430;28;20571;-66
2022/04/24 06:25:48;;;;;;;1.33;1.33;;;6.70;99.90;;;;;;6177549;28;20230;-66
2022/04/24 06:28:54;;;;;;;1.57;1.23;;;6.70;99.90;;;;;;6178952;28;20230;-66
2022/04/24 06:32:00;;;;;;;1.13;1.13;;;6.70;99.90;;;;;;6177702;28;20238;-66
2022/04/24 06:35:09;;;;;;;1.23;1.23;;;6.80;99.90;;;;;;6176663;28;20234;-67
2022/04/24 06:38:16;;;;;;;1.20;1.20;;;6.70;99.90;;;;;;6175699;28;20235;-66
2022/04/24 06:41:21;;;;;;;1.60;1.60;;;6.70;99.90;;;;;;6177286;28;20240;-66
2022/04/24 06:44:26;;;;;;;1.50;1.40;;;6.80;99.90;;;;;;6176514;28;20234;-67
2022/04/24 06:47:33;;;;;;;1.40;1.40;;;6.90;99.90;;;;;;6175632;28;20231;-67
2022/04/24 06:50:40;;;;;;;1.07;1.07;;;6.90;99.90;;;;;;6176109;28;20234;-67
2022/04/24 06:53:46;;;;;;;1.40;1.30;;;6.90;99.90;;;;;;6176174;28;20246;-66
2022/04/24 06:56:51;;;;;;;1.30;1.30;;;7.00;99.90;;;;;;6175867;28;20238;-66
2022/04/24 06:59:56;;;;;;;1.27;1.27;;;7.10;99.90;;;;;;6175407;28;20235;-65
2022/04/24 07:03:10;;;;;;;1.42;1.30;;;7.10;99.90;;;;;;6175166;28;20693;-65
2022/04/24 07:06:16;;;;;;;2.15;1.30;;;7.10;99.90;;;;;;6175388;28;20600;-66
2022/04/24 07:09:21;;;;;;;1.10;1.10;;;7.20;99.90;;;;;;6174789;28;20238;-67
2022/04/24 07:12:26;;;;;;;1.10;1.10;;;7.20;99.90;;;;;;6174681;28;20330;-66
2022/04/24 07:15:34;;;;;;;1.10;1.10;;;7.30;99.90;;;;;;6174879;28;20238;-66
2022/04/24 07:18:41;;;;;;;1.77;1.38;;;7.30;99.90;;;;;;6174791;28;20238;-67
2022/04/24 07:21:48;;;;;;;1.33;1.33;;;7.40;99.90;;;;;;6174720;28;20251;-67
2022/04/24 07:24:53;;;;;;;1.15;1.10;;;7.30;99.90;;;;;;6174194;28;20310;-66
2022/04/24 07:27:59;;;;;;;1.17;1.17;;;7.40;99.90;;;;;;6174196;28;20242;-68
2022/04/24 07:31:06;;;;;;;1.50;1.50;;;7.30;99.90;;;;;;6174733;28;20230;-68
2022/04/24 07:34:13;;;;;;;1.20;1.20;;;7.40;99.90;;;;;;6173890;28;20281;-67
2022/04/24 07:37:19;;;;;;;1.10;1.10;;;7.40;99.90;;;;;;6173953;28;20238;-66
2022/04/24 07:40:26;;;;;;;0.97;0.97;;;7.40;99.90;;;;;;6174516;28;20515;-66
2022/04/24 07:43:33;;;;;;;1.20;1.20;;;7.30;99.90;;;;;;6173798;28;20238;-65
2022/04/24 07:46:38;;;;;;;1.25;1.25;;;7.40;99.90;;;;;;6173272;28;20706;-66
2022/04/24 07:49:45;;;;;;;2.00;1.40;;;7.40;99.90;;;;;;6173425;28;20677;-66
2022/04/24 07:52:50;;;;;;;1.20;1.20;;;7.60;99.90;;;;;;6174065;28;20250;-67
2022/04/24 07:55:56;;;;;;;1.13;1.13;;;7.60;99.90;;;;;;6174800;28;20234;-66
2022/04/24 07:59:01;;;;;;;1.30;1.20;;;7.50;99.90;;;;;;6173274;28;20238;-65
2022/04/24 08:02:06;;;;;;;1.00;1.00;;;7.40;99.90;;;;;;6155913;28;20233;-67
2022/04/24 08:05:18;;;;;;;1.23;1.23;;;7.60;99.90;;;;;;6174216;28;20246;-67
2022/04/24 08:08:25;;;;;;;1.10;1.10;;;7.70;99.90;;;;;;6173556;28;20242;-66
2022/04/24 08:11:30;;;;;;;1.20;1.20;;;7.90;99.40;;;;;;6172700;28;20305;-66
2022/04/24 08:14:35;;;;;;;1.30;1.20;;;7.90;99.60;;;;;;6173580;28;20245;-67
2022/04/24 08:17:41;;;;;;;1.30;1.30;;;8.00;99.20;;;;;;6173184;28;20238;-66
2022/04/24 08:20:48;;;;;;;1.15;1.15;;;8.10;99.30;;;;;;6174978;28;20244;-66
2022/04/24 08:23:53;;;;;;;1.00;1.00;;;8.10;99.00;;;;;;6174178;28;20234;-66
2022/04/24 08:27:01;;;;;;;1.00;1.00;;;8.00;98.10;;;;;;6172368;28;20231;-65
2022/04/24 08:30:09;;;;;;;1.25;1.05;;;8.10;97.60;;;;;;6173159;28;20229;-66
2022/04/24 08:33:18;;;;;;;1.10;1.10;;;8.20;96.70;;;;;;6173024;28;20260;-66
2022/04/24 08:36:25;;;;;;;1.20;1.20;;;8.20;97.00;;;;;;6172942;28;20265;-66
2022/04/24 08:39:32;;;;;;;1.00;1.00;;;8.30;96.80;;;;;;6172568;28;20696;-66
2022/04/24 08:42:38;;;;;;;1.10;1.10;;;8.20;96.70;;;;;;6172700;28;20234;-66
2022/04/24 08:45:44;;;;;;;1.15;1.15;;;8.30;96.80;;;;;;6173213;28;20704;-67
2022/04/24 08:48:50;;;;;;;1.15;1.15;;;8.30;96.60;;;;;;6171989;28;20433;-68
2022/04/24 08:51:58;;;;;;;1.00;1.00;;;8.30;95.50;;;;;;6172290;28;20241;-67
2022/04/24 08:55:04;;;;;;;1.00;1.00;;;8.20;95.60;;;;;;6172349;28;20238;-65
2022/04/24 08:58:12;;;;;;;1.00;1.00;;;8.30;95.90;;;;;;6172162;28;20238;-66
2022/04/24 09:01:17;;;;;;;1.10;1.10;;;8.10;94.40;;;;;;6172946;28;20231;-68
2022/04/24 09:04:23;;;;;;;1.10;1.10;;;8.20;95.30;;;;;;6172351;28;20252;-66
2022/04/24 09:07:33;;;;;;;1.10;1.10;;;8.20;94.10;;;;;;6171808;28;20230;-67
2022/04/24 09:10:50;;;;;;;1.60;1.20;;;8.20;93.20;;;;;;6172402;28;20226;-67
2022/04/24 09:17:19;;;;;;;1.10;1.10;;;8.10;89.50;;;;;;6171652;28;20226;-66
2022/04/24 09:20:25;;;;;;;0.90;0.90;;;8.10;88.30;;;;;;6172533;28;20235;-67
2022/04/24 09:23:37;;;;;;;1.40;1.30;;;8.20;89.20;;;;;;6171807;28;20685;-66
2022/04/24 09:26:53;;;;;;;0.90;0.90;;;8.30;87.50;;;;;;6172628;28;20253;-67
2022/04/24 09:30:01;;;;;;;1.02;1.02;;;8.30;86.20;;;;;;6172084;28;20245;-66
2022/04/24 09:33:08;;;;;;;2.05;1.00;;;8.60;85.60;;;;;;6171683;28;20657;-67
2022/04/24 09:36:14;;;;;;;1.10;1.10;;;8.60;87.00;;;;;;6172225;28;20236;-66
2022/04/24 09:39:28;;;;;;;1.13;1.13;;;8.70;85.80;;;;;;6172767;28;20314;-67
2022/04/24 09:42:34;;;;;;;1.00;1.00;;;8.80;81.90;;;;;;6176585;28;20578;-67
2022/04/24 09:45:40;;;;;;;1.23;1.23;;;8.60;80.10;;;;;;6177280;28;20231;-68
2022/04/24 09:48:53;;;;;;;0.90;0.90;;;8.60;80.60;;;;;;6176229;28;20227;-67
2022/04/24 09:51:58;;;;;;;1.27;1.23;;;8.80;83.30;;;;;;6175040;28;20244;-67
2022/04/24 09:55:06;;;;;;;1.15;1.15;;;8.70;80.90;;;;;;6176739;28;20697;-65
2022/04/24 09:58:13;;;;;;;1.17;1.17;;;8.80;79.60;;;;;;6176930;28;20231;-67
2022/04/24 10:01:22;;;;;;;1.20;1.20;;;8.80;78.90;;;;;;6177500;28;20269;-67
2022/04/24 10:04:28;;;;;;;1.38;1.13;;;8.80;76.60;;;;;;6177063;28;20242;-65
2022/04/24 10:07:33;;;;;;;1.27;1.27;;;8.60;75.40;;;;;;6183492;28;20634;-65
2022/04/24 10:10:39;;;;;;;1.25;1.25;;;8.70;74.50;;;;;;6181433;28;20257;-68
2022/04/24 10:13:46;;;;;;;1.35;1.35;;;8.60;74.50;;;;;;6175926;28;20234;-67
2022/04/24 10:17:32;;;;;;;1.20;1.20;;;8.60;76.80;;;;;;6176407;28;20238;-67
2022/04/24 10:20:53;;;;;;;1.35;1.35;;;8.70;74.90;;;;;;6175705;28;20238;-65
2022/04/24 10:24:08;;;;;;;1.40;1.40;;;8.80;75.50;;;;;;6174469;28;20566;-66
2022/04/24 10:27:17;;;;;;;1.27;1.23;;;9.00;74.30;;;;;;6175555;28;20234;-67
2022/04/24 10:30:25;;;;;;;1.20;1.20;;;8.90;69.80;;;;;;6176134;28;20244;-67
2022/04/24 10:33:32;;;;;;;1.45;1.35;;;9.00;70.30;;;;;;6175158;28;20697;-66
2022/04/24 10:36:38;;;;;;;2.40;1.15;;;8.90;68.30;;;;;;6175953;28;20246;-65
2022/04/24 10:39:43;;;;;;;2.30;1.40;;;9.10;70.20;;;;;;6175274;28;20237;-70
2022/04/24 10:42:50;;;;;;;1.20;1.20;;;9.20;68.20;;;;;;6175591;28;20250;-68
2022/04/24 10:45:55;;;;;;;1.45;1.25;;;9.00;66.20;;;;;;6175816;28;20234;-68
2022/04/24 10:49:09;;;;;;;1.30;1.25;;;9.20;67.20;;;;;;6175838;28;20245;-66
2022/04/24 10:52:14;;;;;;;1.55;1.30;;;9.10;65.90;;;;;;6174895;28;20234;-67
2022/04/24 10:55:24;;;;;;;1.30;1.30;;;9.10;65.80;;;;;;6158555;28;20254;-66
2022/04/24 10:58:31;;;;;;;1.65;1.33;;;9.20;67.10;;;;;;6174959;28;20253;-66
2022/04/24 11:01:37;;;;;;;1.20;1.20;;;9.10;65.90;;;;;;6175461;28;20234;-66
2022/04/24 11:04:43;;;;;;;1.63;1.50;;;9.30;66.60;;;;;;6149523;28;20239;-66
2022/04/24 11:08:02;;;;;;;1.48;1.48;;;9.30;66.50;;;;;;6151074;28;20246;-67
2022/04/24 11:11:07;;;;;;;1.55;1.30;;;9.30;66.30;;;;;;6151348;28;20243;-66
2022/04/24 11:14:20;;;;;;;3.67;1.52;;;9.30;65.60;;;;;;6151259;28;20227;-67
2022/04/24 11:17:25;;;;;;;2.22;2.13;;;9.30;65.30;;;;;;6151021;28;20243;-67
2022/04/24 11:20:33;;;;;;;1.60;1.60;;;9.30;65.40;;;;;;6151196;28;20239;-66
2022/04/24 11:23:40;;;;;;;2.92;1.90;;;9.40;63.40;;;;;;6150594;28;20239;-66
2022/04/24 11:26:48;;;;;;;3.35;1.80;;;9.30;62.90;;;;;;6151247;28;20231;-67
2022/04/24 11:29:55;;;;;;;1.77;1.70;;;9.30;63.30;;;;;;6151044;28;20243;-67
2022/04/24 11:33:05;;;;;;;2.05;1.95;;;9.20;62.20;;;;;;6163455;28;20238;-67
2022/04/24 11:36:13;;;;;;;1.50;1.50;;;9.30;63.40;;;;;;6151458;28;20235;-66
2022/04/24 11:39:19;;;;;;;2.17;2.08;;;9.20;63.20;;;;;;6149803;28;20234;-66
2022/04/24 11:42:26;;;;;;;1.90;1.90;;;9.40;63.20;;;;;;6150559;28;20245;-67
2022/04/24 11:52:29;;;;;;;2.05;2.05;;;9.50;62.90;;;;;;6148733;28;20231;-67
2022/04/24 11:58:54;;;;;;;2.67;1.90;;;9.60;63.20;;;;;;6153545;28;20246;-66
2022/04/24 12:02:01;;;;;;;2.00;1.98;;;9.40;63.00;;;;;;6150131;28;20242;-67
2022/04/24 12:05:10;;;;;;;2.10;2.05;;;9.50;63.50;;;;;;6162530;28;20234;-67
2022/04/24 12:08:15;;;;;;;2.63;1.90;;;9.40;62.10;;;;;;6173059;28;20245;-67
2022/04/24 12:11:32;;;;;;;2.40;1.77;;;9.40;62.40;;;;;;6173494;28;20239;-67
2022/04/24 12:14:38;;;;;;;2.20;1.85;;;9.40;63.90;;;;;;6173054;28;20227;-67
2022/04/24 12:17:55;;;;;;;1.70;1.70;;;9.50;63.10;;;;;;6173139;28;20253;-67
2022/04/24 12:21:00;;;;;;;1.80;1.80;;;9.30;63.90;;;;;;6176251;28;20241;-66
2022/04/24 12:24:06;;;;;;;2.20;1.95;;;9.40;62.40;;;;;;6174750;28;20245;-66
2022/04/24 12:27:15;;;;;;;1.92;1.92;;;9.40;63.10;;;;;;6174276;28;20241;-68
2022/04/24 12:30:21;;;;;;;1.85;1.75;;;9.40;63.60;;;;;;6173691;28;20693;-66
2022/04/24 12:33:28;;;;;;;1.98;1.98;;;9.40;63.30;;;;;;6172850;28;20249;-66
2022/04/24 12:36:33;;;;;;;2.30;2.30;;;9.30;63.70;;;;;;6173042;28;20650;-66
2022/04/24 12:39:38;;;;;;;2.10;2.10;;;9.40;64.50;;;;;;6172323;28;20650;-67
2022/04/24 12:42:52;;;;;;;2.20;1.90;;;9.50;64.70;;;;;;6172603;28;20238;-67
2022/04/24 12:45:58;;;;;;;2.13;2.13;;;9.50;65.40;;;;;;6146140;28;20231;-67
2022/04/24 12:49:07;;;;;;;7.72;2.28;;;9.50;64.30;;;;;;6172002;28;20552;-67
2022/04/24 12:52:13;;;;;;;2.28;2.28;;;9.30;65.60;;;;;;6172512;28;20697;-67
2022/04/24 12:55:19;;;;;;;4.25;2.30;;;9.40;65.60;;;;;;6172834;28;20241;-67
2022/04/24 12:58:24;;;;;;;2.40;2.40;;;9.50;65.20;;;;;;6171905;28;20234;-67
2022/04/24 13:01:30;;;;;;;2.50;2.30;;;9.60;64.80;;;;;;6172643;28;20227;-67
2022/04/24 13:04:37;;;;;;;2.10;2.10;;;9.70;64.40;;;;;;6171720;28;20285;-67
2022/04/24 13:07:43;;;;;;;2.20;2.20;;;9.70;63.90;;;;;;6172652;28;20241;-67
2022/04/24 13:10:48;;;;;;;2.20;2.20;;;9.40;63.90;;;;;;6172568;28;20249;-67
2022/04/24 13:13:54;;;;;;;2.38;2.30;;;9.50;65.30;;;;;;6171724;28;20254;-67
2022/04/24 13:20:24;;;;;;;2.20;2.20;;;9.40;65.50;;;;;;6172685;28;20265;-67
2022/04/24 13:23:50;;;;;;;2.10;2.10;;;9.60;65.90;;;;;;6171893;28;20235;-66
2022/04/24 13:26:56;;;;;;;2.25;2.25;;;9.50;64.70;;;;;;6172187;28;20245;-67
2022/04/24 13:30:01;;;;;;;2.22;2.20;;;9.60;66.00;;;;;;6172252;28;20244;-67
2022/04/24 13:33:07;;;;;;;2.00;2.00;;;9.50;66.10;;;;;;6171594;28;20236;-67
2022/04/24 13:36:16;;;;;;;2.25;2.25;;;9.60;65.70;;;;;;6154563;28;20242;-67
2022/04/24 13:39:21;;;;;;;2.30;2.20;;;9.70;66.40;;;;;;6153547;28;20234;-68
2022/04/24 13:42:27;;;;;;;2.03;2.03;;;9.80;65.00;;;;;;6154869;28;20230;-66
2022/04/24 13:45:35;;;;;;;2.13;2.13;;;9.70;65.00;;;;;;6172476;28;20693;-67
2022/04/24 13:49:01;;;;;;;1.77;1.77;;;9.70;64.60;;;;;;6170718;28;20223;-67
2022/04/24 13:52:08;;;;;;;3.60;2.10;;;9.70;65.30;;;;;;6154798;28;20237;-67
2022/04/24 13:55:15;;;;;;;2.28;2.28;;;9.50;64.50;;;;;;6172243;28;20231;-66
2022/04/24 13:58:21;;;;;;;2.00;2.00;;;9.50;65.00;;;;;;6153702;28;20261;-68
2022/04/24 14:01:27;;;;;;;2.03;1.98;;;9.70;65.50;;;;;;6170392;28;20237;-67
2022/04/24 14:04:32;;;;;;;2.38;2.38;;;9.70;65.50;;;;;;6171568;28;20234;-67
2022/04/24 14:07:39;;;;;;;2.42;2.42;;;9.60;65.60;;;;;;6153507;28;20690;-66
2022/04/24 14:10:46;;;;;;;2.35;2.20;;;9.70;67.20;;;;;;6171319;28;20280;-67
2022/04/24 14:13:54;;;;;;;2.60;2.50;;;9.70;66.90;;;;;;6171282;28;20261;-67
2022/04/24 14:16:59;;;;;;;2.38;2.38;;;9.70;67.10;;;;;;6170445;28;20238;-67
2022/04/24 14:20:06;;;;;;;2.63;2.60;;;9.70;66.30;;;;;;6170848;28;20237;-67
2022/04/24 14:23:15;;;;;;;2.65;2.65;;;9.60;66.70;;;;;;6176150;28;20233;-68
2022/04/24 14:26:21;;;;;;;2.42;2.42;;;9.60;67.50;;;;;;6156662;28;20234;-66
2022/04/24 14:29:27;;;;;;;2.35;2.35;;;9.70;67.90;;;;;;6174888;28;20250;-66
2022/04/24 14:32:33;;;;;;;2.67;2.65;;;9.70;68.40;;;;;;6157991;28;20238;-68
2022/04/24 14:35:40;;;;;;;9.18;2.63;;;9.80;69.20;;;;;;6176486;28;20242;-67
2022/04/24 14:38:47;;;;;;;3.03;2.83;;;9.80;68.40;;;;;;6175579;28;20597;-68
2022/04/24 14:41:54;;;;;;;2.65;2.65;;;9.70;66.90;;;;;;6175285;28;20230;-67
2022/04/24 14:44:59;;;;;;;2.70;2.50;;;9.80;66.80;;;;;;6176153;28;20242;-66
2022/04/24 14:58:22;;;;;;;1.92;1.90;;;9.70;68.20;;;;;;6157654;28;20249;-67
2022/04/24 15:01:28;;;;;;;2.38;2.13;;;9.50;68.20;;;;;;6175937;28;20239;-67
2022/04/24 15:04:35;;;;;;;2.15;2.05;;;9.40;69.00;;;;;;6173194;28;20249;-67
2022/04/24 15:07:40;;;;;;;2.00;1.90;;;9.40;69.80;;;;;;6174020;28;20245;-66
2022/04/24 15:10:48;;;;;;;2.08;2.08;;;9.40;70.30;;;;;;6175803;28;20238;-68
2022/04/24 15:13:54;;;;;;;1.80;1.80;;;9.40;70.20;;;;;;6148274;28;20242;-67
2022/04/24 15:17:01;;;;;;;2.17;1.70;;;9.40;70.70;;;;;;6175280;28;20241;-68
2022/04/24 15:20:08;;;;;;;2.15;1.58;;;9.40;71.50;;;;;;6176880;28;20234;-67
2022/04/24 15:23:15;;;;;;;1.58;1.40;;;9.30;71.20;;;;;;6160957;28;20230;-67
2022/04/24 15:26:23;;;;;;;1.35;1.30;;;9.30;71.40;;;;;;6165485;28;20230;-66
2022/04/24 15:29:29;;;;;;;1.45;1.45;;;9.20;72.10;;;;;;6185332;28;20241;-65
2022/04/24 15:32:35;;;;;;;1.70;1.60;;;9.10;72.50;;;;;;6172565;28;20238;-67
2022/04/24 15:35:40;;;;;;;1.42;1.27;;;9.10;73.40;;;;;;6185602;28;20230;-64
2022/04/24 15:39:03;;;;;;;2.10;1.58;;;9.10;73.40;;;;;;6181993;28;20231;-66
2022/04/24 15:42:10;;;;;;;1.40;1.40;;;9.10;74.10;;;;;;6175105;28;20232;-67
2022/04/24 15:45:17;;;;;;;1.35;1.35;;;9.00;73.60;;;;;;6175987;28;20253;-66
2022/04/24 15:48:22;;;;;;;1.75;1.70;;;9.00;73.10;;;;;;6174351;28;20234;-67
2022/04/24 15:51:27;;;;;;;1.50;1.50;;;9.10;74.70;;;;;;6174146;28;20227;-64
2022/04/24 15:54:32;;;;;;;1.50;1.40;;;9.00;75.60;;;;;;6174164;28;20240;-67
2022/04/24 15:57:41;;;;;;;1.60;1.60;;;8.90;74.50;;;;;;6173290;28;20326;-66
2022/04/24 16:00:47;;;;;;;1.50;1.50;;;8.90;74.90;;;;;;6173182;28;20249;-67
2022/04/24 16:03:53;;;;;;;1.67;1.60;;;8.90;74.50;;;;;;6173428;28;20714;-67
2022/04/24 16:06:58;;;;;;;1.40;1.40;;;8.80;74.60;;;;;;6173044;28;20693;-66
2022/04/24 16:10:04;;;;;;;1.50;1.50;;;8.70;74.10;;;;;;6172864;28;20223;-69
2022/04/24 16:13:14;;;;;;;1.35;1.35;;;8.70;75.60;;;;;;6170491;28;20697;-66
2022/04/24 16:16:23;;;;;;;1.30;1.30;;;8.80;76.50;;;;;;6174070;28;20246;-66
2022/04/24 16:19:29;;;;;;;1.40;1.40;;;8.90;75.60;;;;;;6173823;28;20353;-66
2022/04/24 16:22:35;;;;;;;1.40;1.40;;;8.90;75.20;;;;;;6173307;28;20339;-68
2022/04/24 16:25:41;;;;;;;1.98;1.65;;;8.90;75.10;;;;;;6171979;28;20242;-67
2022/04/24 16:28:49;;;;;;;1.25;1.25;;;8.80;75.60;;;;;;6173616;28;20237;-69
2022/04/24 16:31:55;;;;;;;1.42;1.40;;;8.70;76.50;;;;;;6173159;28;20245;-66
2022/04/24 16:35:04;;;;;;;1.50;1.50;;;8.60;77.80;;;;;;6173083;28;20226;-65
2022/04/24 16:38:09;;;;;;;1.60;1.60;;;8.70;78.80;;;;;;6172646;28;20231;-65
2022/04/24 16:41:16;;;;;;;1.70;1.60;;;8.60;79.30;;;;;;6157749;28;20651;-67
2022/04/24 16:44:22;;;;;;;1.40;1.40;;;8.60;79.60;;;;;;6175808;28;20250;-66
2022/04/24 16:47:29;;;;;;;1.33;1.33;;;8.60;80.20;;;;;;6176908;28;20235;-67
2022/04/24 17:00:48;;;;;;;1.50;1.50;;;8.70;82.00;;;;;;6172795;28;20247;-65
2022/04/24 17:03:57;;;;;;;1.50;1.50;;;8.60;80.80;;;;;;6172430;28;20246;-67